createdAt,value
2018-08-23T00:00:42.740Z,55.63
2018-08-23T00:01:46.288Z,53.63
2018-08-23T00:02:50.115Z,56.65
2018-08-23T00:03:53.725Z,58.85
2018-08-23T00:04:57.277Z,55.43
2018-08-23T00:06:02.489Z,54.55
2018-08-23T00:07:06.053Z,57.53
2018-08-23T00:08:10.601Z,58.25
2018-08-23T00:09:14.207Z,57.55
2018-08-23T00:10:17.783Z,60.30
2018-08-23T00:11:26.296Z,58.95
2018-08-23T00:12:40.377Z,65.03
2018-08-23T00:13:45.100Z,61.68
2018-08-23T00:14:48.570Z,65.30
2018-08-23T00:15:52.190Z,68.78
2018-08-23T00:16:56.419Z,68.17
2018-08-23T00:17:59.998Z,61.85
2018-08-23T00:19:04.493Z,67.27
2018-08-23T00:20:08.180Z,65.60
2018-08-23T00:21:16.093Z,72.10
2018-08-23T00:22:26.876Z,69.40
2018-08-23T00:23:30.548Z,72.35
2018-08-23T00:24:34.158Z,72.92
2018-08-23T00:25:38.502Z,67.87
2018-08-23T00:26:46.090Z,71.95
2018-08-23T00:27:50.275Z,70.70
2018-08-23T00:28:54.013Z,70.00
2018-08-23T00:29:57.601Z,72.62
2018-08-23T00:31:01.101Z,71.92
2018-08-23T00:32:06.308Z,71.82
2018-08-23T00:33:09.846Z,71.75
2018-08-23T00:34:13.309Z,74.70
2018-08-23T00:35:21.265Z,70.97
2018-08-23T00:36:24.931Z,71.15
2018-08-23T00:37:28.410Z,73.17
2018-08-23T00:38:31.918Z,77.12
2018-08-23T00:39:35.415Z,78.02
2018-08-23T00:40:41.290Z,73.80
2018-08-23T00:41:49.633Z,77.08
2018-08-23T00:42:58.765Z,77.25
2018-08-23T00:44:02.333Z,76.22
2018-08-23T00:45:16.062Z,74.37
2018-08-23T00:46:19.729Z,83.50
2018-08-23T00:47:27.174Z,79.07
2018-08-23T00:48:31.481Z,78.00
2018-08-23T00:49:34.928Z,80.80
2018-08-23T00:50:56.149Z,74.30
2018-08-23T00:51:59.660Z,80.75
2018-08-23T00:53:03.400Z,78.02
2018-08-23T00:54:07.179Z,83.22
2018-08-23T00:55:26.470Z,80.55
2018-08-23T00:56:31.378Z,84.75
2018-08-23T00:57:35.693Z,81.57
2018-08-23T00:58:41.620Z,80.65
2018-08-23T00:59:49.314Z,83.62
2018-08-23T01:00:58.209Z,79.20
2018-08-23T01:02:11.819Z,82.80
2018-08-23T01:03:15.566Z,80.47
2018-08-23T01:04:19.978Z,73.47
2018-08-23T01:05:28.952Z,79.67
2018-08-23T01:06:39.267Z,82.57
2018-08-23T01:07:43.350Z,83.65
2018-08-23T01:08:47.111Z,85.47
2018-08-23T01:09:50.600Z,85.55
2018-08-23T01:10:54.320Z,82.17
2018-08-23T01:11:57.849Z,87.60
2018-08-23T01:13:03.184Z,78.33
2018-08-23T01:14:06.832Z,85.87
2018-08-23T01:15:10.450Z,89.20
2018-08-23T01:16:15.350Z,92.20
2018-08-23T01:17:19.490Z,89.22
2018-08-23T01:18:23.021Z,84.58
2018-08-23T01:19:31.854Z,89.55
2018-08-23T01:20:35.572Z,93.07
2018-08-23T01:21:56.564Z,85.50
2018-08-23T01:23:01.239Z,83.30
2018-08-23T01:24:05.204Z,89.22
2018-08-23T01:25:09.055Z,87.53
2018-08-23T01:26:12.566Z,90.53
2018-08-23T01:27:23.004Z,89.52
2018-08-23T01:28:26.480Z,91.22
2018-08-23T01:29:30.940Z,85.95
2018-08-23T01:30:34.612Z,87.60
2018-08-23T01:31:38.460Z,101.65
2018-08-23T01:32:42.867Z,93.92
2018-08-23T01:33:46.439Z,88.55
2018-08-23T01:34:50.088Z,88.12
2018-08-23T01:35:53.613Z,89.05
2018-08-23T01:36:57.765Z,87.30
2018-08-23T01:38:01.491Z,89.17
2018-08-23T01:39:10.186Z,96.95
2018-08-23T01:40:13.705Z,94.87
2018-08-23T01:41:17.153Z,93.45
2018-08-23T01:42:23.886Z,94.35
2018-08-23T01:43:27.450Z,91.15
2018-08-23T01:44:34.061Z,94.87
2018-08-23T01:45:37.737Z,97.65
2018-08-23T01:46:45.500Z,92.10
2018-08-23T01:47:56.509Z,103.40
2018-08-23T01:49:00.160Z,96.35
2018-08-23T01:50:03.679Z,99.83
2018-08-23T01:51:07.297Z,105.50
2018-08-23T01:52:10.790Z,91.20
2018-08-23T01:53:14.328Z,93.30
2018-08-23T01:54:18.740Z,95.25
2018-08-23T01:55:23.394Z,104.35
2018-08-23T01:56:27.040Z,96.87
2018-08-23T01:57:34.847Z,110.90
2018-08-23T01:58:38.458Z,97.15
2018-08-23T01:59:41.924Z,101.87
2018-08-23T02:00:46.704Z,98.82
2018-08-23T02:01:50.488Z,100.80
2018-08-23T02:02:54.196Z,101.67
2018-08-23T02:03:57.834Z,102.25
2018-08-23T02:05:01.445Z,101.15
2018-08-23T02:06:05.261Z,103.38
2018-08-23T02:07:08.758Z,102.25
2018-08-23T02:08:12.627Z,99.45
2018-08-23T02:09:16.113Z,105.40
2018-08-23T02:10:19.688Z,112.00
2018-08-23T02:11:23.856Z,100.78
2018-08-23T02:12:27.323Z,103.17
2018-08-23T02:13:31.519Z,102.87
2018-08-23T02:14:39.367Z,109.72
2018-08-23T02:15:48.312Z,104.00
2018-08-23T02:16:53.000Z,109.60
2018-08-23T02:17:57.694Z,108.75
2018-08-23T02:19:01.323Z,103.95
2018-08-23T02:20:05.019Z,103.07
2018-08-23T02:21:09.413Z,107.05
2018-08-23T02:22:13.726Z,102.27
2018-08-23T02:23:17.352Z,104.45
2018-08-23T02:24:25.772Z,111.83
2018-08-23T02:25:29.396Z,107.70
2018-08-23T02:26:32.957Z,109.03
2018-08-23T02:27:50.058Z,110.05
2018-08-23T02:28:53.601Z,111.37
2018-08-23T02:29:57.132Z,114.82
2018-08-23T02:31:01.294Z,115.60
2018-08-23T02:32:05.825Z,105.95
2018-08-23T02:33:10.610Z,114.15
2018-08-23T02:34:14.899Z,100.47
2018-08-23T02:35:18.484Z,101.92
2018-08-23T02:36:23.261Z,107.55
2018-08-23T02:37:27.685Z,105.58
2018-08-23T02:38:31.246Z,104.92
2018-08-23T02:39:34.823Z,101.42
2018-08-23T02:40:39.258Z,113.10
2018-08-23T02:41:42.809Z,102.42
2018-08-23T02:42:46.330Z,102.62
2018-08-23T02:43:50.022Z,111.40
2018-08-23T02:44:54.402Z,110.17
2018-08-23T02:45:57.944Z,108.22
2018-08-23T02:47:03.605Z,110.90
2018-08-23T02:48:08.165Z,110.70
2018-08-23T02:49:12.011Z,109.78
2018-08-23T02:50:15.762Z,116.77
2018-08-23T02:51:19.496Z,121.72
2018-08-23T02:52:23.239Z,118.75
2018-08-23T02:53:39.284Z,117.87
2018-08-23T02:54:42.846Z,125.10
2018-08-23T02:55:50.720Z,111.55
2018-08-23T02:56:58.281Z,119.70
2018-08-23T02:58:01.891Z,118.95
2018-08-23T02:59:06.388Z,114.72
2018-08-23T03:00:10.140Z,131.07
2018-08-23T03:01:13.647Z,127.07
2018-08-23T03:02:17.180Z,137.22
2018-08-23T03:03:21.229Z,130.27
2018-08-23T03:04:26.009Z,122.05
2018-08-23T03:05:29.568Z,126.27
2018-08-23T03:06:38.566Z,127.70
2018-08-23T03:07:42.115Z,130.12
2018-08-23T03:08:45.724Z,128.25
2018-08-23T03:09:49.208Z,127.72
2018-08-23T03:10:53.004Z,137.03
2018-08-23T03:11:57.789Z,143.65
2018-08-23T03:13:01.641Z,134.75
2018-08-23T03:14:06.521Z,134.47
2018-08-23T03:15:10.077Z,131.32
2018-08-23T03:16:13.659Z,135.40
2018-08-23T03:17:25.156Z,132.90
2018-08-23T03:18:29.380Z,122.00
2018-08-23T03:19:33.576Z,132.35
2018-08-23T03:20:37.463Z,125.30
2018-08-23T03:21:41.101Z,124.62
2018-08-23T03:22:45.937Z,128.12
2018-08-23T03:23:49.441Z,127.60
2018-08-23T03:24:53.091Z,125.47
2018-08-23T03:25:56.599Z,119.33
2018-08-23T03:27:00.184Z,120.97
2018-08-23T03:28:03.705Z,125.00
2018-08-23T03:29:07.446Z,119.13
2018-08-23T03:30:12.338Z,116.80
2018-08-23T03:31:16.125Z,119.95
2018-08-23T03:32:19.594Z,131.12
2018-08-23T03:33:23.202Z,128.45
2018-08-23T03:34:26.656Z,127.62
2018-08-23T03:35:30.289Z,131.80
2018-08-23T03:36:33.840Z,125.42
2018-08-23T03:37:37.409Z,123.58
2018-08-23T03:38:41.007Z,125.80
2018-08-23T03:39:44.687Z,134.32
2018-08-23T03:40:48.226Z,132.30
2018-08-23T03:41:51.714Z,127.75
2018-08-23T03:42:55.237Z,133.05
2018-08-23T03:43:59.328Z,139.70
2018-08-23T03:45:03.514Z,127.47
2018-08-23T03:46:07.045Z,137.55
2018-08-23T03:47:10.735Z,136.70
2018-08-23T03:48:14.268Z,136.72
2018-08-23T03:49:18.157Z,129.60
2018-08-23T03:50:22.726Z,139.32
2018-08-23T03:51:26.591Z,136.22
2018-08-23T03:52:35.471Z,136.57
2018-08-23T03:53:48.091Z,136.22
2018-08-23T03:55:01.994Z,132.32
2018-08-23T03:56:09.749Z,130.22
2018-08-23T03:57:16.817Z,129.38
2018-08-23T03:58:20.409Z,127.62
2018-08-23T03:59:23.887Z,143.90
2018-08-23T04:00:32.568Z,127.35
2018-08-23T04:01:36.629Z,122.85
2018-08-23T04:02:40.079Z,142.10
2018-08-23T04:03:43.632Z,128.40
2018-08-23T04:04:49.733Z,145.55
2018-08-23T04:05:53.996Z,135.50
2018-08-23T04:06:57.604Z,140.95
2018-08-23T04:08:01.790Z,151.72
2018-08-23T04:09:08.081Z,139.57
2018-08-23T04:10:11.687Z,146.25
2018-08-23T04:11:16.178Z,136.85
2018-08-23T04:12:19.640Z,141.85
2018-08-23T04:13:23.184Z,138.52
2018-08-23T04:14:26.902Z,151.30
2018-08-23T04:15:32.261Z,132.87
2018-08-23T04:16:35.882Z,132.75
2018-08-23T04:17:39.465Z,133.18
2018-08-23T04:18:43.109Z,127.80
2018-08-23T04:19:48.461Z,149.23
2018-08-23T04:20:57.972Z,130.32
2018-08-23T04:22:01.442Z,124.12
2018-08-23T04:23:04.914Z,134.95
2018-08-23T04:24:08.401Z,129.27
2018-08-23T04:25:13.448Z,141.30
2018-08-23T04:26:17.380Z,139.07
2018-08-23T04:27:20.985Z,138.00
2018-08-23T04:28:24.689Z,125.70
2018-08-23T04:29:33.493Z,124.58
2018-08-23T04:30:37.672Z,137.22
2018-08-23T04:31:42.083Z,135.28
2018-08-23T04:32:47.826Z,131.87
2018-08-23T04:33:51.313Z,136.95
2018-08-23T04:34:55.716Z,139.18
2018-08-23T04:35:59.297Z,131.05
2018-08-23T04:37:02.748Z,137.25
2018-08-23T04:38:06.353Z,147.30
2018-08-23T04:39:11.347Z,147.93
2018-08-23T04:40:15.759Z,130.57
2018-08-23T04:41:19.826Z,156.05
2018-08-23T04:42:23.388Z,139.32
2018-08-23T04:43:27.220Z,140.77
2018-08-23T04:44:37.257Z,145.68
2018-08-23T04:45:40.772Z,149.53
2018-08-23T04:46:44.576Z,152.32
2018-08-23T04:47:53.683Z,144.47
2018-08-23T04:48:57.192Z,138.90
2018-08-23T04:50:00.655Z,135.25
2018-08-23T04:51:04.312Z,143.07
2018-08-23T04:52:07.893Z,138.32
2018-08-23T04:53:11.670Z,136.12
2018-08-23T04:54:15.233Z,130.75
2018-08-23T04:55:18.935Z,133.22
2018-08-23T04:56:22.615Z,132.87
2018-08-23T04:57:26.456Z,129.90
2018-08-23T04:58:29.948Z,126.20
2018-08-23T04:59:33.390Z,127.15
2018-08-23T05:00:36.914Z,130.10
2018-08-23T05:01:40.461Z,127.67
2018-08-23T05:02:43.953Z,119.13
2018-08-23T05:03:47.522Z,127.02
2018-08-23T05:04:51.115Z,122.58
2018-08-23T05:05:54.630Z,123.72
2018-08-23T05:06:58.202Z,117.03
2018-08-23T05:08:01.747Z,109.20
2018-08-23T05:09:08.031Z,115.60
2018-08-23T05:10:11.663Z,111.03
2018-08-23T05:11:15.137Z,112.20
2018-08-23T05:12:18.665Z,107.03
2018-08-23T05:13:22.353Z,105.00
2018-08-23T05:14:25.996Z,101.62
2018-08-23T05:15:29.597Z,98.05
2018-08-23T05:16:33.191Z,90.00
2018-08-23T05:17:36.674Z,90.50
2018-08-23T05:18:40.196Z,83.27
2018-08-23T05:19:44.857Z,87.57
2018-08-23T05:20:48.343Z,88.90
2018-08-23T05:21:51.914Z,73.95
2018-08-23T05:23:01.863Z,76.25
2018-08-23T05:24:12.768Z,76.00
2018-08-23T05:25:16.639Z,75.95
2018-08-23T05:26:20.178Z,69.62
2018-08-23T05:27:23.664Z,71.00
2018-08-23T05:28:27.227Z,64.50
2018-08-23T05:29:30.908Z,65.32
2018-08-23T05:30:34.453Z,59.20
2018-08-23T05:31:38.213Z,61.28
2018-08-23T05:32:41.920Z,61.98
2018-08-23T05:33:45.447Z,56.33
2018-08-23T05:34:48.980Z,58.38
2018-08-23T05:35:53.239Z,58.58
2018-08-23T05:36:57.439Z,55.95
2018-08-23T05:38:01.251Z,55.12
2018-08-23T05:39:07.884Z,57.65
2018-08-23T05:40:11.611Z,51.40
2018-08-23T05:41:15.122Z,53.10
2018-08-23T05:42:29.143Z,50.20
2018-08-23T05:43:32.628Z,48.33
2018-08-23T05:44:36.218Z,44.13
2018-08-23T05:45:45.039Z,48.60
2018-08-23T05:46:51.231Z,48.73
2018-08-23T05:47:54.818Z,47.78
2018-08-23T05:48:58.956Z,49.85
2018-08-23T05:50:02.466Z,48.45
2018-08-23T05:51:09.365Z,48.30
2018-08-23T05:52:13.763Z,44.83
2018-08-23T05:53:18.143Z,45.05
2018-08-23T05:54:21.744Z,45.70
2018-08-23T05:55:25.348Z,43.45
2018-08-23T05:56:28.837Z,46.98
2018-08-23T05:57:32.518Z,46.33
2018-08-23T05:58:36.022Z,45.90
2018-08-23T05:59:39.572Z,45.45
2018-08-23T06:00:43.142Z,52.05
2018-08-23T06:01:47.527Z,43.60
2018-08-23T06:02:51.132Z,45.63
2018-08-23T06:03:54.657Z,49.05
2018-08-23T06:04:58.243Z,47.73
2018-08-23T06:06:01.832Z,44.03
2018-08-23T06:07:05.303Z,46.83
2018-08-23T06:08:08.896Z,49.30
2018-08-23T06:09:14.477Z,45.03
2018-08-23T06:10:17.988Z,42.03
2018-08-23T06:11:21.724Z,43.90
2018-08-23T06:12:31.002Z,43.85
2018-08-23T06:13:34.878Z,42.67
2018-08-23T06:14:38.399Z,41.98
2018-08-23T06:15:46.160Z,39.15
2018-08-23T06:16:55.035Z,40.40
2018-08-23T06:17:58.475Z,46.33
2018-08-23T06:19:02.031Z,43.20
2018-08-23T06:20:05.917Z,39.53
2018-08-23T06:21:09.814Z,44.10
2018-08-23T06:22:13.368Z,44.08
2018-08-23T06:23:17.628Z,43.33
2018-08-23T06:24:21.097Z,41.02
2018-08-23T06:25:24.627Z,39.42
2018-08-23T06:26:32.383Z,44.38
2018-08-23T06:27:35.930Z,41.65
2018-08-23T06:28:39.471Z,40.05
2018-08-23T06:29:43.067Z,42.35
2018-08-23T06:30:46.609Z,38.25
2018-08-23T06:31:57.472Z,43.15
2018-08-23T06:33:03.991Z,40.28
2018-08-23T06:34:08.507Z,41.88
2018-08-23T06:35:12.278Z,39.25
2018-08-23T06:36:16.212Z,39.58
2018-08-23T06:37:21.224Z,38.88
2018-08-23T06:38:24.906Z,39.70
2018-08-23T06:39:29.080Z,40.80
2018-08-23T06:40:33.056Z,46.85
2018-08-23T06:41:36.741Z,52.13
2018-08-23T06:42:46.232Z,46.10
2018-08-23T06:43:49.693Z,49.95
2018-08-23T06:44:54.492Z,43.13
2018-08-23T06:45:59.795Z,45.17
2018-08-23T06:47:03.264Z,52.78
2018-08-23T06:48:06.942Z,40.52
2018-08-23T06:49:11.058Z,46.00
2018-08-23T06:50:14.612Z,44.70
2018-08-23T06:51:18.218Z,47.73
2018-08-23T06:52:30.189Z,46.35
2018-08-23T06:53:43.404Z,49.25
2018-08-23T06:54:46.893Z,46.30
2018-08-23T06:55:50.589Z,50.65
2018-08-23T06:56:54.396Z,44.85
2018-08-23T06:58:01.151Z,46.77
2018-08-23T06:59:04.646Z,41.55
2018-08-23T07:00:08.289Z,43.50
2018-08-23T07:01:27.318Z,46.05
2018-08-23T07:02:31.787Z,47.00
2018-08-23T07:03:35.466Z,43.42
2018-08-23T07:04:39.184Z,44.20
2018-08-23T07:05:42.755Z,45.78
2018-08-23T07:06:46.344Z,46.63
2018-08-23T07:07:50.076Z,47.98
2018-08-23T07:08:53.698Z,43.50
2018-08-23T07:09:57.221Z,46.45
2018-08-23T07:11:10.804Z,39.63
2018-08-23T07:12:21.759Z,42.03
2018-08-23T07:13:25.322Z,39.95
2018-08-23T07:14:28.935Z,37.03
2018-08-23T07:15:32.828Z,39.25
2018-08-23T07:16:36.450Z,41.35
2018-08-23T07:17:40.071Z,42.93
2018-08-23T07:18:46.095Z,41.45
2018-08-23T07:19:50.298Z,45.28
2018-08-23T07:20:54.468Z,43.40
2018-08-23T07:22:00.766Z,40.70
2018-08-23T07:23:09.413Z,37.13
2018-08-23T07:24:22.917Z,39.65
2018-08-23T07:25:26.553Z,39.03
2018-08-23T07:26:30.189Z,39.30
2018-08-23T07:27:33.739Z,37.17
2018-08-23T07:28:38.217Z,38.50
2018-08-23T07:29:44.668Z,37.93
2018-08-23T07:30:48.126Z,33.58
2018-08-23T07:32:00.791Z,33.63
2018-08-23T07:33:04.322Z,38.55
2018-08-23T07:34:09.269Z,37.42
2018-08-23T07:35:15.823Z,35.15
2018-08-23T07:36:28.075Z,39.85
2018-08-23T07:37:33.861Z,34.67
2018-08-23T07:38:37.565Z,37.30
2018-08-23T07:39:45.242Z,35.40
2018-08-23T07:40:48.829Z,32.67
2018-08-23T07:41:52.304Z,35.45
2018-08-23T07:42:55.990Z,38.83
2018-08-23T07:43:59.688Z,34.38
2018-08-23T07:45:03.611Z,32.58
2018-08-23T07:46:07.631Z,35.78
2018-08-23T07:47:11.932Z,37.23
2018-08-23T07:48:16.102Z,34.67
2018-08-23T07:49:20.534Z,37.65
2018-08-23T07:50:24.080Z,34.15
2018-08-23T07:51:27.577Z,35.85
2018-08-23T07:52:32.299Z,31.37
2018-08-23T07:53:35.856Z,33.08
2018-08-23T07:54:39.709Z,36.00
2018-08-23T07:55:43.319Z,33.53
2018-08-23T07:56:47.193Z,30.48
2018-08-23T07:57:50.836Z,30.32
2018-08-23T07:58:55.711Z,27.90
2018-08-23T08:00:00.777Z,27.02
2018-08-23T08:01:04.581Z,29.23
2018-08-23T08:02:11.758Z,29.98
2018-08-23T08:03:15.970Z,26.82
2018-08-23T08:04:19.598Z,26.65
2018-08-23T08:05:28.424Z,25.97
2018-08-23T08:06:31.982Z,26.52
2018-08-23T08:07:35.851Z,28.02
2018-08-23T08:08:41.649Z,29.67
2018-08-23T08:09:45.562Z,27.50
2018-08-23T08:10:49.242Z,25.25
2018-08-23T08:11:58.741Z,25.77
2018-08-23T08:13:03.547Z,23.45
2018-08-23T08:14:13.968Z,24.05
2018-08-23T08:15:17.974Z,24.82
2018-08-23T08:16:22.536Z,19.15
2018-08-23T08:17:29.096Z,21.00
2018-08-23T08:18:32.585Z,20.80
2018-08-23T08:19:41.514Z,21.05
2018-08-23T08:20:50.877Z,20.48
2018-08-23T08:21:54.442Z,24.95
2018-08-23T08:22:57.972Z,23.22
2018-08-23T08:24:02.006Z,22.48
2018-08-23T08:25:11.142Z,25.32
2018-08-23T08:26:14.840Z,23.92
2018-08-23T08:27:18.710Z,21.17
2018-08-23T08:28:22.208Z,19.85
2018-08-23T08:29:31.158Z,19.23
2018-08-23T08:30:40.961Z,18.00
2018-08-23T08:31:45.128Z,22.62
2018-08-23T08:32:48.644Z,19.40
2018-08-23T08:33:56.548Z,18.85
2018-08-23T08:35:00.972Z,19.35
2018-08-23T08:36:05.454Z,17.35
2018-08-23T08:37:08.935Z,20.08
2018-08-23T08:38:13.601Z,17.75
2018-08-23T08:39:17.713Z,17.07
2018-08-23T08:40:23.251Z,17.90
2018-08-23T08:41:27.049Z,17.55
2018-08-23T08:42:32.034Z,17.42
2018-08-23T08:43:35.800Z,16.40
2018-08-23T08:44:39.441Z,17.57
2018-08-23T08:45:43.737Z,17.37
2018-08-23T08:46:47.240Z,14.93
2018-08-23T08:47:50.877Z,14.38
2018-08-23T08:52:00.658Z,13.50
2018-08-23T08:53:04.177Z,13.88
2018-08-23T08:54:08.057Z,12.45
2018-08-23T08:55:13.451Z,11.20
2018-08-23T08:56:21.847Z,12.85
2018-08-23T08:57:29.723Z,13.55
2018-08-23T08:58:34.088Z,11.97
2018-08-23T08:59:37.986Z,13.08
2018-08-23T09:00:52.281Z,12.33
2018-08-23T09:01:55.970Z,13.38
2018-08-23T09:03:00.801Z,12.23
2018-08-23T09:04:04.691Z,15.38
2018-08-23T09:05:09.273Z,14.38
2018-08-23T09:06:17.132Z,14.07
2018-08-23T09:07:23.798Z,13.18
2018-08-23T09:08:27.555Z,13.48
2018-08-23T09:09:34.869Z,14.30
2018-08-23T09:10:38.771Z,11.15
2018-08-23T09:11:42.608Z,11.73
2018-08-23T09:12:47.381Z,16.20
2018-08-23T09:13:51.012Z,12.05
2018-08-23T09:14:55.055Z,12.30
2018-08-23T09:16:00.279Z,11.30
2018-08-23T09:17:46.505Z,10.95
2018-08-23T09:19:00.110Z,10.75
2018-08-23T09:20:06.236Z,13.32
2018-08-23T09:21:10.643Z,13.10
2018-08-23T09:22:19.644Z,9.40
2018-08-23T09:23:24.400Z,9.38
2018-08-23T09:24:29.277Z,10.88
2018-08-23T09:25:38.088Z,10.03
2018-08-23T09:26:42.319Z,11.22
2018-08-23T09:27:47.351Z,10.25
2018-08-23T09:28:50.917Z,10.93
2018-08-23T09:29:55.251Z,10.48
2018-08-23T09:30:58.832Z,11.28
2018-08-23T09:32:08.502Z,11.30
2018-08-23T09:33:18.251Z,10.18
2018-08-23T09:34:21.828Z,10.82
2018-08-23T09:35:30.025Z,12.43
2018-08-23T09:36:33.606Z,12.88
2018-08-23T09:37:39.081Z,12.05
2018-08-23T09:38:42.581Z,13.95
2018-08-23T09:39:46.717Z,13.95
2018-08-23T09:40:50.679Z,15.68
2018-08-23T09:41:54.268Z,12.05
2018-08-23T09:42:58.717Z,13.75
2018-08-23T09:44:02.961Z,12.98
2018-08-23T09:45:14.487Z,11.60
2018-08-23T09:46:18.242Z,12.85
2018-08-23T09:47:21.896Z,16.17
2018-08-23T09:48:26.027Z,14.33
2018-08-23T09:49:30.309Z,13.48
2018-08-23T09:50:34.078Z,15.10
2018-08-23T09:51:38.690Z,11.65
2018-08-23T09:52:44.097Z,13.28
2018-08-23T09:53:47.730Z,12.55
2018-08-23T09:54:51.252Z,11.73
2018-08-23T09:55:56.111Z,15.55
2018-08-23T09:56:59.678Z,13.53
2018-08-23T09:58:04.059Z,13.30
2018-08-23T09:59:07.587Z,14.35
2018-08-23T10:00:14.945Z,14.58
2018-08-23T10:01:23.936Z,14.87
2018-08-23T10:02:33.009Z,12.95
2018-08-23T10:03:42.644Z,11.45
2018-08-23T10:04:53.228Z,11.88
2018-08-23T10:07:04.005Z,17.30
2018-08-23T10:08:12.749Z,14.30
2018-08-23T10:09:23.852Z,14.45
2018-08-23T10:10:34.517Z,12.58
2018-08-23T10:11:44.159Z,16.37
2018-08-23T10:12:53.096Z,16.48
2018-08-23T10:14:01.820Z,16.75
2018-08-23T10:15:10.924Z,15.63
2018-08-23T10:16:19.804Z,15.05
2018-08-23T10:17:28.790Z,16.05
2018-08-23T10:18:38.004Z,16.05
2018-08-23T10:19:46.997Z,20.40
2018-08-23T10:20:53.625Z,17.10
2018-08-23T10:22:02.783Z,17.25
2018-08-23T10:23:12.077Z,15.90
2018-08-23T10:24:20.997Z,15.58
2018-08-23T10:25:42.340Z,16.82
2018-08-23T10:26:46.684Z,15.63
2018-08-23T10:27:50.745Z,17.95
2018-08-23T10:28:54.434Z,13.95
2018-08-23T10:29:58.185Z,14.10
2018-08-23T10:31:02.396Z,16.70
2018-08-23T10:32:06.288Z,16.05
2018-08-23T10:33:09.861Z,17.73
2018-08-23T10:34:13.924Z,16.32
2018-08-23T10:35:17.474Z,19.85
2018-08-23T10:36:21.568Z,18.00
2018-08-23T10:37:25.288Z,17.10
2018-08-23T10:38:29.635Z,15.15
2018-08-23T10:39:34.493Z,15.30
2018-08-23T10:40:38.196Z,16.02
2018-08-23T10:41:42.182Z,16.93
2018-08-23T10:42:45.842Z,14.55
2018-08-23T10:43:49.928Z,15.05
2018-08-23T10:44:53.394Z,17.50
2018-08-23T10:46:01.197Z,17.00
2018-08-23T10:47:04.843Z,15.55
2018-08-23T10:48:13.668Z,16.37
2018-08-23T10:49:17.336Z,15.78
2018-08-23T10:50:21.163Z,16.90
2018-08-23T10:51:24.772Z,16.73
2018-08-23T10:52:28.430Z,17.20
2018-08-23T10:53:32.060Z,16.95
2018-08-23T10:54:36.344Z,18.48
2018-08-23T10:55:40.419Z,18.20
2018-08-23T10:56:44.132Z,19.52
2018-08-23T10:57:47.619Z,16.55
2018-08-23T10:58:51.737Z,20.35
2018-08-23T10:59:55.778Z,18.57
2018-08-23T11:00:59.628Z,17.23
2018-08-23T11:02:03.518Z,21.25
2018-08-23T11:03:08.135Z,20.30
2018-08-23T11:04:11.980Z,17.00
2018-08-23T11:05:16.226Z,16.70
2018-08-23T11:06:20.257Z,17.20
2018-08-23T11:07:28.632Z,15.78
2018-08-23T11:08:33.905Z,16.17
2018-08-23T11:10:46.391Z,17.98
2018-08-23T11:11:50.038Z,16.48
2018-08-23T11:12:58.778Z,16.05
2018-08-23T11:14:07.758Z,16.12
2018-08-23T11:15:16.689Z,18.40
2018-08-23T11:16:25.617Z,20.90
2018-08-23T11:18:37.947Z,18.62
2018-08-23T11:19:47.003Z,20.00
2018-08-23T11:20:51.277Z,20.85
2018-08-23T11:21:55.158Z,18.42
2018-08-23T11:22:59.045Z,18.80
2018-08-23T11:24:02.623Z,18.62
2018-08-23T11:25:06.905Z,17.00
2018-08-23T11:26:10.821Z,18.77
2018-08-23T11:27:15.116Z,17.87
2018-08-23T11:28:21.300Z,19.07
2018-08-23T11:29:24.914Z,16.20
2018-08-23T11:30:28.797Z,15.90
2018-08-23T11:31:32.749Z,18.15
2018-08-23T11:32:36.758Z,17.65
2018-08-23T11:33:40.926Z,17.40
2018-08-23T11:34:44.566Z,20.77
2018-08-23T11:35:48.132Z,15.53
2018-08-23T11:36:51.853Z,16.87
2018-08-23T11:37:55.386Z,17.32
2018-08-23T11:38:59.240Z,17.23
2018-08-23T11:40:03.220Z,16.12
2018-08-23T11:41:07.300Z,16.23
2018-08-23T11:42:10.881Z,16.42
2018-08-23T11:43:14.786Z,15.45
2018-08-23T11:44:18.446Z,17.37
2018-08-23T11:45:21.950Z,17.25
2018-08-23T11:46:25.592Z,15.78
2018-08-23T11:47:29.305Z,16.25
2018-08-23T11:48:33.875Z,20.15
2018-08-23T11:49:37.687Z,15.63
2018-08-23T11:50:42.139Z,15.50
2018-08-23T11:51:45.833Z,15.25
2018-08-23T11:52:49.525Z,14.05
2018-08-23T11:53:53.383Z,14.30
2018-08-23T11:54:57.293Z,15.75
2018-08-23T11:56:00.916Z,14.68
2018-08-23T11:57:04.590Z,15.03
2018-08-23T11:58:08.185Z,17.52
2018-08-23T11:59:13.713Z,16.67
2018-08-23T12:00:17.979Z,14.35
2018-08-23T12:01:21.540Z,14.95
2018-08-23T12:02:25.884Z,15.25
2018-08-23T12:03:29.925Z,14.80
2018-08-23T12:04:36.035Z,14.55
2018-08-23T12:05:39.666Z,15.38
2018-08-23T12:06:44.304Z,16.55
2018-08-23T12:07:50.681Z,14.40
2018-08-23T12:08:54.288Z,16.20
2018-08-23T12:09:58.063Z,14.83
2018-08-23T12:11:01.993Z,15.10
2018-08-23T12:12:05.862Z,14.05
2018-08-23T12:13:09.663Z,14.15
2018-08-23T12:14:14.026Z,14.43
2018-08-23T12:15:33.535Z,12.88
2018-08-23T12:16:37.143Z,13.13
2018-08-23T12:17:41.172Z,14.30
2018-08-23T12:18:45.954Z,12.55
2018-08-23T12:19:49.448Z,14.90
2018-08-23T12:20:53.074Z,13.25
2018-08-23T12:21:56.631Z,12.00
2018-08-23T12:23:00.171Z,13.78
2018-08-23T12:24:03.813Z,11.53
2018-08-23T12:25:07.552Z,11.20
2018-08-23T12:26:11.274Z,11.33
2018-08-23T12:27:14.919Z,13.43
2018-08-23T12:33:56.105Z,9.28
2018-08-23T12:35:00.482Z,11.10
2018-08-23T12:36:06.552Z,21.35
2018-08-23T12:37:16.456Z,15.08
2018-08-23T12:38:25.774Z,10.28
2018-08-23T12:39:34.643Z,10.85
2018-08-23T12:40:43.545Z,11.57
2018-08-23T12:41:53.070Z,12.70
2018-08-23T12:42:56.709Z,11.50
2018-08-23T12:44:00.228Z,11.53
2018-08-23T12:45:04.018Z,11.60
2018-08-23T12:46:08.063Z,12.05
2018-08-23T12:47:13.219Z,10.65
2018-08-23T12:48:16.926Z,13.50
2018-08-23T12:49:21.097Z,11.10
2018-08-23T12:50:25.157Z,10.98
2018-08-23T12:51:30.609Z,11.78
2018-08-23T12:52:35.548Z,12.20
2018-08-23T12:53:40.398Z,12.43
2018-08-23T12:54:45.442Z,11.40
2018-08-23T12:55:50.041Z,12.37
2018-08-23T12:56:54.372Z,12.68
2018-08-23T12:57:59.084Z,15.43
2018-08-23T12:59:04.336Z,11.63
2018-08-23T13:00:09.005Z,11.83
2018-08-23T13:01:13.772Z,11.38
2018-08-23T13:02:18.985Z,10.72
2018-08-23T13:03:23.972Z,11.22
2018-08-23T13:04:30.044Z,10.90
2018-08-23T13:05:35.642Z,11.10
2018-08-23T13:06:39.545Z,10.98
2018-08-23T13:07:44.382Z,10.38
2018-08-23T13:08:48.694Z,10.55
2018-08-23T13:09:54.081Z,9.53
2018-08-23T13:11:00.033Z,9.68
2018-08-23T13:12:08.171Z,9.03
2018-08-23T13:13:13.893Z,9.13
2018-08-23T13:14:18.778Z,14.65
2018-08-23T13:15:23.409Z,11.68
2018-08-23T13:16:27.484Z,9.80
2018-08-23T13:17:31.683Z,10.95
2018-08-23T13:18:36.806Z,13.58
2018-08-23T13:19:43.083Z,9.98
2018-08-23T13:20:47.279Z,12.23
2018-08-23T13:22:00.487Z,10.93
2018-08-23T13:23:06.453Z,10.20
2018-08-23T13:24:17.223Z,9.93
2018-08-23T13:25:21.605Z,9.98
2018-08-23T13:26:30.525Z,11.57
2018-08-23T13:27:34.708Z,9.55
2018-08-23T13:28:40.911Z,11.78
2018-08-23T13:29:48.045Z,10.35
2018-08-23T13:30:52.617Z,14.98
2018-08-23T13:31:59.479Z,12.03
2018-08-23T13:33:04.272Z,12.45
2018-08-23T13:34:11.112Z,9.98
2018-08-23T13:35:17.948Z,12.78
2018-08-23T13:36:22.773Z,11.03
2018-08-23T13:37:31.614Z,12.07
2018-08-23T13:38:38.708Z,12.73
2018-08-23T13:39:45.959Z,11.53
2018-08-23T13:40:52.494Z,10.10
2018-08-23T13:41:58.823Z,10.72
2018-08-23T13:43:04.366Z,12.95
2018-08-23T13:44:09.649Z,11.03
2018-08-23T13:45:14.867Z,12.58
2018-08-23T13:46:20.199Z,12.07
2018-08-23T13:47:25.246Z,11.33
2018-08-23T13:48:31.320Z,10.63
2018-08-23T13:49:37.384Z,15.05
2018-08-23T13:50:41.919Z,15.25
2018-08-23T13:51:47.521Z,15.10
2018-08-23T13:52:53.288Z,12.80
2018-08-23T13:54:00.001Z,11.88
2018-08-23T13:55:05.476Z,11.75
2018-08-23T13:56:11.351Z,13.50
2018-08-23T13:57:17.448Z,14.40
2018-08-23T13:58:21.363Z,16.15
2018-08-23T13:59:27.084Z,13.88
2018-08-23T14:00:36.802Z,14.90
2018-08-23T14:01:42.352Z,13.70
2018-08-23T14:02:46.894Z,14.58
2018-08-23T14:03:52.703Z,14.33
2018-08-23T14:04:57.057Z,10.48
2018-08-23T14:06:01.213Z,13.25